createdAt,value
2022-09-20T00:00:13.387Z,1.80
2022-09-20T00:02:39.713Z,1.87
2022-09-20T00:05:08.311Z,1.90
2022-09-20T00:07:34.704Z,2.07
2022-09-20T00:10:01.357Z,1.70
2022-09-20T00:12:27.972Z,1.90
2022-09-20T00:14:54.292Z,1.80
2022-09-20T00:17:20.677Z,1.70
2022-09-20T00:19:47.032Z,1.60
2022-09-20T00:22:13.383Z,1.53
2022-09-20T00:24:39.705Z,1.63
2022-09-20T00:27:06.178Z,1.40
2022-09-20T00:29:32.532Z,1.53
2022-09-20T00:31:58.991Z,1.70
2022-09-20T00:34:43.942Z,1.60
2022-09-20T00:37:10.299Z,1.67
2022-09-20T00:39:36.643Z,1.80
2022-09-20T00:42:03.081Z,1.83
2022-09-20T00:44:43.096Z,2.00
2022-09-20T00:47:24.527Z,1.73
2022-09-20T00:49:52.118Z,1.60
2022-09-20T00:52:20.459Z,1.40
2022-09-20T00:54:47.170Z,1.80
2022-09-20T00:57:13.638Z,1.60
2022-09-20T00:59:41.453Z,1.73
2022-09-20T01:02:07.886Z,1.63
2022-09-20T01:04:35.026Z,1.57
2022-09-20T01:07:02.821Z,1.17
2022-09-20T01:09:29.176Z,1.30
2022-09-20T01:11:57.115Z,1.30
2022-09-20T01:14:25.288Z,1.17
2022-09-20T01:16:56.542Z,1.37
2022-09-20T01:19:28.005Z,1.50
2022-09-20T01:21:54.851Z,1.30
2022-09-20T01:24:33.571Z,1.40
2022-09-20T01:27:32.976Z,1.57
2022-09-20T01:30:06.514Z,1.50
2022-09-20T01:32:42.912Z,1.50
2022-09-20T01:35:09.823Z,1.33
2022-09-20T01:37:47.318Z,1.40
2022-09-20T01:40:28.640Z,1.30
2022-09-20T01:43:21.505Z,1.10
2022-09-20T01:45:49.185Z,1.30
2022-09-20T01:48:25.402Z,1.40
2022-09-20T01:51:24.275Z,1.40
2022-09-20T01:53:50.831Z,1.30
2022-09-20T01:56:28.482Z,1.20
2022-09-20T01:59:23.028Z,1.33
2022-09-20T02:01:53.373Z,1.37
2022-09-20T02:04:47.627Z,1.20
2022-09-20T02:07:43.140Z,1.30
2022-09-20T02:10:20.300Z,1.00
2022-09-20T02:12:58.804Z,1.53
2022-09-20T02:15:36.461Z,1.20
2022-09-20T02:18:05.586Z,1.30
2022-09-20T02:20:34.607Z,1.50
2022-09-20T02:23:19.939Z,1.57
2022-09-20T02:25:49.235Z,1.13
2022-09-20T02:28:40.676Z,1.40
2022-09-20T02:31:14.689Z,1.23
2022-09-20T02:33:57.399Z,1.40
2022-09-20T02:36:30.741Z,1.40
2022-09-20T02:39:17.118Z,1.47
2022-09-20T02:41:46.203Z,1.33
2022-09-20T02:44:24.996Z,1.40
2022-09-20T02:47:03.288Z,1.57
2022-09-20T02:49:36.049Z,1.30
2022-09-20T02:52:15.198Z,1.60
2022-09-20T02:54:50.677Z,1.20
2022-09-20T02:57:35.828Z,1.43
2022-09-20T03:00:06.275Z,1.60
2022-09-20T03:02:52.032Z,1.37
2022-09-20T03:05:21.779Z,1.50
2022-09-20T03:08:07.025Z,1.57
2022-09-20T03:10:52.096Z,1.60
2022-09-20T03:13:21.543Z,1.57
2022-09-20T03:16:06.775Z,1.57
2022-09-20T03:18:45.407Z,1.47
2022-09-20T03:21:11.708Z,1.83
2022-09-20T03:23:56.746Z,2.10
2022-09-20T03:26:31.925Z,1.87
2022-09-20T03:29:04.009Z,1.70
2022-09-20T03:31:38.632Z,1.70
2022-09-20T03:34:20.178Z,1.90
2022-09-20T03:36:55.594Z,1.83
2022-09-20T03:39:40.977Z,1.70
2022-09-20T03:42:07.302Z,1.73
2022-09-20T03:44:46.771Z,1.30
2022-09-20T03:47:19.315Z,1.60
2022-09-20T03:49:52.611Z,1.53
2022-09-20T03:52:35.551Z,1.27
2022-09-20T03:55:20.630Z,1.97
2022-09-20T03:58:27.519Z,1.40
2022-09-20T04:00:56.900Z,1.60
2022-09-20T04:03:28.631Z,1.70
2022-09-20T04:06:10.398Z,1.50
2022-09-20T04:08:40.148Z,1.87
2022-09-20T04:11:15.616Z,2.00
2022-09-20T04:13:54.693Z,1.80
2022-09-20T04:16:35.121Z,1.97
2022-09-20T04:19:10.297Z,2.10
2022-09-20T04:21:40.975Z,1.90
2022-09-20T04:24:25.466Z,2.17
2022-09-20T04:26:56.749Z,2.27
2022-09-20T04:29:29.225Z,2.30
2022-09-20T04:31:59.607Z,2.30
2022-09-20T04:34:50.039Z,2.33
2022-09-20T04:37:22.913Z,2.53
2022-09-20T04:39:54.812Z,2.33
2022-09-20T04:42:23.955Z,2.40
2022-09-20T04:45:14.385Z,2.57
2022-09-20T04:47:59.292Z,2.23
2022-09-20T04:50:31.809Z,2.87
2022-09-20T04:53:10.489Z,2.40
2022-09-20T04:55:36.811Z,2.13
2022-09-20T04:58:21.865Z,2.10
2022-09-20T05:01:07.081Z,2.53
2022-09-20T05:03:51.936Z,2.40
2022-09-20T05:06:21.384Z,2.30
2022-09-20T05:09:00.138Z,2.23
2022-09-20T05:11:47.168Z,2.60
2022-09-20T05:14:24.779Z,2.57
2022-09-20T05:17:11.547Z,2.80
2022-09-20T05:19:58.429Z,3.33
2022-09-20T05:22:42.484Z,2.90
2022-09-20T05:25:22.840Z,2.73
2022-09-20T05:27:49.137Z,2.57
2022-09-20T05:30:24.439Z,2.23
2022-09-20T05:33:00.746Z,2.40
2022-09-20T05:35:45.667Z,2.33
2022-09-20T05:38:30.875Z,2.30
2022-09-20T05:41:04.458Z,2.50
2022-09-20T05:43:32.464Z,3.10
2022-09-20T05:46:01.593Z,2.77
2022-09-20T05:48:32.275Z,2.43
2022-09-20T05:51:03.664Z,2.73
2022-09-20T05:53:49.231Z,3.20
2022-09-20T05:56:15.526Z,3.63
2022-09-20T05:58:58.091Z,3.30
2022-09-20T06:01:32.885Z,3.00
2022-09-20T06:04:11.528Z,3.87
2022-09-20T06:06:40.842Z,3.57
2022-09-20T06:09:07.179Z,3.80
2022-09-20T06:11:40.949Z,3.90
2022-09-20T06:14:15.126Z,3.87
2022-09-20T06:16:48.866Z,3.83
2022-09-20T06:19:34.683Z,3.60
2022-09-20T06:22:19.000Z,4.50
2022-09-20T06:25:04.412Z,3.83
2022-09-20T06:27:34.615Z,4.10
2022-09-20T06:30:02.490Z,4.17
2022-09-20T06:32:28.826Z,4.30
2022-09-20T06:34:55.255Z,4.70
2022-09-20T06:38:02.719Z,3.90
2022-09-20T06:40:47.665Z,4.07
2022-09-20T06:43:14.475Z,4.10
2022-09-20T06:45:41.789Z,4.63
2022-09-20T06:48:13.206Z,5.30
2022-09-20T06:50:39.948Z,5.17
2022-09-20T06:53:06.542Z,4.43
2022-09-20T06:55:37.291Z,4.67
2022-09-20T06:58:04.119Z,4.50
2022-09-20T07:00:30.492Z,4.80
2022-09-20T07:02:56.806Z,5.00
2022-09-20T07:05:26.479Z,5.07
2022-09-20T07:07:59.413Z,5.17
2022-09-20T07:10:28.103Z,4.57
2022-09-20T07:12:58.575Z,5.73
2022-09-20T07:15:25.324Z,6.77
2022-09-20T07:17:51.712Z,7.20
2022-09-20T07:20:21.487Z,6.97
2022-09-20T07:22:48.326Z,6.00
2022-09-20T07:25:14.732Z,6.47
2022-09-20T07:27:41.128Z,6.67
2022-09-20T07:30:08.124Z,6.60
2022-09-20T07:32:34.431Z,6.30
2022-09-20T07:35:01.849Z,5.90
2022-09-20T07:37:28.208Z,5.43
2022-09-20T07:39:54.587Z,5.43
2022-09-20T07:42:20.918Z,6.53
2022-09-20T07:44:47.670Z,6.73
2022-09-20T07:47:18.064Z,6.20
2022-09-20T07:49:44.453Z,6.17
2022-09-20T07:52:11.187Z,5.43
2022-09-20T07:54:37.552Z,4.80
2022-09-20T07:57:05.601Z,3.87
2022-09-20T07:59:32.053Z,4.13
2022-09-20T08:02:00.563Z,4.03
2022-09-20T08:04:26.994Z,4.77
2022-09-20T08:06:53.364Z,4.63
2022-09-20T08:09:19.723Z,4.07
2022-09-20T08:11:46.394Z,3.73
2022-09-20T08:14:14.504Z,3.00
2022-09-20T08:16:42.787Z,3.70
2022-09-20T08:19:14.416Z,3.43
2022-09-20T08:21:41.037Z,3.40
2022-09-20T08:24:07.379Z,3.70
2022-09-20T08:26:35.771Z,3.80
2022-09-20T08:29:02.248Z,3.33
2022-09-20T08:31:34.553Z,3.87
2022-09-20T08:34:03.730Z,3.77
2022-09-20T08:36:36.109Z,3.40
2022-09-20T08:41:56.691Z,3.30
2022-09-20T08:44:26.313Z,3.37
2022-09-20T08:46:57.846Z,3.20
2022-09-20T08:49:28.440Z,2.80
2022-09-20T08:51:58.027Z,2.83
2022-09-20T08:54:32.334Z,2.43
2022-09-20T08:57:05.079Z,2.60
2022-09-20T08:59:31.821Z,2.50
2022-09-20T09:01:59.766Z,2.97
2022-09-20T09:04:31.910Z,2.53
2022-09-20T09:06:58.803Z,2.63
2022-09-20T09:09:26.506Z,2.97
2022-09-20T09:11:53.619Z,2.60
2022-09-20T09:14:43.627Z,2.83
2022-09-20T09:17:11.944Z,2.50
2022-09-20T09:19:44.504Z,1.80
2022-09-20T09:22:11.442Z,1.70
2022-09-20T09:24:37.778Z,2.00
2022-09-20T09:27:15.169Z,1.60
2022-09-20T09:29:50.773Z,1.40
2022-09-20T09:32:21.923Z,1.17
2022-09-20T09:34:48.327Z,1.30
2022-09-20T09:37:29.155Z,1.37
2022-09-20T09:40:18.539Z,1.33
2022-09-20T09:42:49.764Z,1.23
2022-09-20T09:45:36.084Z,1.40
2022-09-20T09:48:02.938Z,0.90
2022-09-20T09:50:31.590Z,0.97
2022-09-20T09:52:59.288Z,0.80
2022-09-20T09:55:29.320Z,1.10
2022-09-20T09:58:01.724Z,1.10
2022-09-20T10:00:29.221Z,1.33
2022-09-20T10:02:55.609Z,1.47
2022-09-20T10:05:28.237Z,1.10
2022-09-20T10:07:59.470Z,1.23
2022-09-20T10:10:41.411Z,1.00
2022-09-20T10:13:13.835Z,1.00
2022-09-20T10:16:17.510Z,0.97
2022-09-20T10:18:50.911Z,0.80
2022-09-20T10:21:48.715Z,0.90
2022-09-20T10:24:17.997Z,1.00
2022-09-20T10:27:01.869Z,1.20
2022-09-20T10:29:45.517Z,0.80
2022-09-20T10:32:27.367Z,1.10
2022-09-20T10:35:03.189Z,0.90
2022-09-20T10:37:49.601Z,0.90
2022-09-20T10:40:16.066Z,0.70
2022-09-20T10:43:04.186Z,0.80
2022-09-20T10:46:08.383Z,1.33
2022-09-20T10:48:32.463Z,1.10
2022-09-20T10:50:58.790Z,0.90
2022-09-20T10:53:28.796Z,0.93
2022-09-20T10:56:14.817Z,0.90
2022-09-20T10:58:56.859Z,0.80
2022-09-20T11:01:41.824Z,0.80
2022-09-20T11:04:17.071Z,0.73
2022-09-20T11:07:03.075Z,0.60
2022-09-20T11:09:35.004Z,0.80
2022-09-20T11:12:15.415Z,0.90
2022-09-20T11:14:48.330Z,0.87
2022-09-20T11:17:24.406Z,1.00
2022-09-20T11:20:04.771Z,0.70
2022-09-20T11:22:44.426Z,0.70
2022-09-20T11:25:29.855Z,0.90
2022-09-20T11:28:11.928Z,0.70
2022-09-20T11:30:43.345Z,0.90
2022-09-20T11:33:15.526Z,0.83
2022-09-20T11:35:46.823Z,0.70
2022-09-20T11:38:17.540Z,0.70
2022-09-20T11:40:48.152Z,0.80
2022-09-20T11:43:16.296Z,1.20
2022-09-20T11:45:43.374Z,1.07
2022-09-20T11:48:13.692Z,0.70
2022-09-20T11:50:44.380Z,0.70
2022-09-20T11:53:23.861Z,0.90
2022-09-20T11:56:08.804Z,0.70
2022-09-20T11:58:55.127Z,0.87
2022-09-20T12:01:28.546Z,0.90
2022-09-20T12:04:20.952Z,0.80
2022-09-20T12:06:47.034Z,0.70
2022-09-20T12:09:29.022Z,1.20
2022-09-20T12:11:56.606Z,0.90
2022-09-20T12:14:24.253Z,0.90
2022-09-20T12:16:50.851Z,1.00
2022-09-20T12:19:32.824Z,2.83
2022-09-20T12:21:59.438Z,2.87
2022-09-20T12:24:25.752Z,2.30
2022-09-20T12:26:55.820Z,1.93
2022-09-20T12:29:24.892Z,1.80
2022-09-20T12:31:55.835Z,2.13
2022-09-20T12:34:22.590Z,1.43
2022-09-20T12:36:54.837Z,1.80
2022-09-20T12:39:29.763Z,1.80
2022-09-20T12:42:22.623Z,0.80
2022-09-20T12:44:48.910Z,1.53
2022-09-20T12:47:17.247Z,1.63
2022-09-20T12:50:05.070Z,1.60
2022-09-20T12:53:00.436Z,1.30
2022-09-20T12:55:37.988Z,1.47
2022-09-20T12:58:06.279Z,1.70
2022-09-20T13:00:45.249Z,1.13
2022-09-20T13:03:14.669Z,1.23
2022-09-20T13:05:45.741Z,1.00
2022-09-20T13:08:13.111Z,0.80
2022-09-20T13:10:42.989Z,0.70
2022-09-20T13:13:15.194Z,1.00
2022-09-20T13:15:48.638Z,0.93
2022-09-20T13:18:15.462Z,1.00
2022-09-20T13:20:42.793Z,0.77
2022-09-20T13:23:17.381Z,0.90
2022-09-20T13:25:43.718Z,0.60
2022-09-20T13:28:20.990Z,0.50
2022-09-20T13:30:47.604Z,0.60
2022-09-20T13:33:14.895Z,0.53
2022-09-20T13:35:41.386Z,0.63
2022-09-20T13:38:09.443Z,0.60
2022-09-20T13:40:38.375Z,0.60
2022-09-20T13:43:23.139Z,0.90
2022-09-20T13:45:53.748Z,0.63
2022-09-20T13:48:23.735Z,0.60
2022-09-20T13:50:53.473Z,0.70
2022-09-20T13:53:40.023Z,0.50
2022-09-20T13:56:25.712Z,0.70
2022-09-20T13:58:52.745Z,0.60
2022-09-20T14:01:21.775Z,1.43
2022-09-20T14:03:48.470Z,0.70
2022-09-20T14:06:16.014Z,0.70
2022-09-20T14:08:44.075Z,0.93
2022-09-20T14:11:13.289Z,0.73
2022-09-20T14:13:41.461Z,0.73
2022-09-20T14:16:08.720Z,0.80
2022-09-20T14:18:35.606Z,0.90
2022-09-20T14:21:02.280Z,0.90
2022-09-20T14:23:29.367Z,0.90
2022-09-20T14:26:08.874Z,0.80
2022-09-20T14:28:35.215Z,0.90
2022-09-20T14:31:11.764Z,0.80
2022-09-20T14:33:42.806Z,0.73
2022-09-20T14:36:17.781Z,0.90
2022-09-20T14:38:45.126Z,0.90
2022-09-20T14:41:12.255Z,0.80
2022-09-20T14:43:38.962Z,0.80
2022-09-20T14:46:08.614Z,0.70
2022-09-20T14:48:41.194Z,1.40
2022-09-20T14:51:10.922Z,0.80
2022-09-20T14:53:38.227Z,0.80
2022-09-20T14:56:04.835Z,0.70
2022-09-20T14:58:31.644Z,0.70
2022-09-20T15:01:05.161Z,0.90
2022-09-20T15:03:39.120Z,0.80
2022-09-20T15:06:06.489Z,0.80
2022-09-20T15:08:36.616Z,0.90
2022-09-20T15:11:03.639Z,0.90
2022-09-20T15:13:30.016Z,0.90
2022-09-20T15:15:56.372Z,0.70
2022-09-20T15:18:25.222Z,0.80
2022-09-20T15:20:51.994Z,0.70
2022-09-20T15:23:18.684Z,0.80
2022-09-20T15:25:45.257Z,0.90
2022-09-20T15:28:17.200Z,0.83
2022-09-20T15:30:44.169Z,0.90
2022-09-20T15:33:11.349Z,1.10
2022-09-20T15:35:41.134Z,0.90
2022-09-20T15:38:10.169Z,1.00
2022-09-20T15:40:38.240Z,1.00
2022-09-20T15:43:04.753Z,0.70
2022-09-20T15:45:31.211Z,0.80
2022-09-20T15:47:58.118Z,0.80
2022-09-20T15:50:24.811Z,0.80
2022-09-20T15:52:57.996Z,1.00
2022-09-20T15:55:26.260Z,0.70
2022-09-20T15:57:52.593Z,0.87
2022-09-20T16:00:19.734Z,0.83
2022-09-20T16:02:48.766Z,0.90
2022-09-20T16:05:15.079Z,1.00
2022-09-20T16:07:42.283Z,1.13
2022-09-20T16:19:08.257Z,1.40
2022-09-20T16:21:36.308Z,1.90
2022-09-20T16:24:02.786Z,1.13
2022-09-20T16:26:29.340Z,0.90
2022-09-20T16:28:55.781Z,1.00
2022-09-20T16:31:34.734Z,0.97
2022-09-20T16:34:02.044Z,1.00
2022-09-20T16:36:28.353Z,1.10
2022-09-20T16:38:58.473Z,1.77
2022-09-20T16:41:25.932Z,1.27
2022-09-20T16:43:52.864Z,1.50
2022-09-20T16:46:22.581Z,1.00
2022-09-20T16:48:53.014Z,1.20
2022-09-20T16:51:25.830Z,1.60
2022-09-20T16:53:55.575Z,1.37
2022-09-20T16:56:23.060Z,4.00
2022-09-20T16:58:50.116Z,3.50
2022-09-20T17:01:17.040Z,3.10
2022-09-20T17:03:44.682Z,1.90
2022-09-20T17:06:11.963Z,1.30
2022-09-20T17:08:39.915Z,1.17
2022-09-20T17:11:08.341Z,2.10
2022-09-20T17:13:35.704Z,2.17
2022-09-20T17:16:06.374Z,1.63
2022-09-20T17:18:35.762Z,1.40
2022-09-20T17:21:05.866Z,1.53
2022-09-20T17:23:35.524Z,1.40
2022-09-20T17:26:04.895Z,1.30
2022-09-20T17:28:33.899Z,1.30
2022-09-20T17:31:01.125Z,1.17
2022-09-20T17:33:29.679Z,1.30
2022-09-20T17:35:56.011Z,1.30
2022-09-20T17:38:22.746Z,1.53
2022-09-20T17:40:57.867Z,1.63
2022-09-20T17:43:24.162Z,2.23
2022-09-20T17:45:50.520Z,2.67
2022-09-20T17:48:16.854Z,2.63
2022-09-20T17:50:44.011Z,2.20
2022-09-20T17:53:10.338Z,2.27
2022-09-20T17:55:37.239Z,2.40
2022-09-20T17:58:03.789Z,1.50
2022-09-20T18:00:30.256Z,1.80
2022-09-20T18:02:56.638Z,1.67
2022-09-20T18:05:22.978Z,1.80
2022-09-20T18:07:51.498Z,1.90
2022-09-20T18:10:17.911Z,2.90
2022-09-20T18:12:44.239Z,5.60
2022-09-20T18:15:10.609Z,5.33
2022-09-20T18:17:36.926Z,4.37
2022-09-20T18:20:03.737Z,2.67
2022-09-20T18:22:30.052Z,3.00
2022-09-20T18:24:56.425Z,2.50
2022-09-20T18:27:22.733Z,3.30
2022-09-20T18:29:49.078Z,5.53
2022-09-20T18:32:15.947Z,6.77
2022-09-20T18:34:42.338Z,6.23
2022-09-20T18:37:13.850Z,7.03
2022-09-20T18:39:41.014Z,5.93
2022-09-20T18:42:07.955Z,5.83
2022-09-20T18:44:34.668Z,4.67
2022-09-20T18:47:02.631Z,5.00
2022-09-20T18:49:30.644Z,3.40
2022-09-20T18:51:57.208Z,3.27
2022-09-20T18:54:23.675Z,11.60
2022-09-20T18:56:50.425Z,19.80
2022-09-20T18:59:24.188Z,24.13
2022-09-20T19:01:50.836Z,36.90
2022-09-20T19:04:36.145Z,9.03
2022-09-20T19:07:21.184Z,8.00
2022-09-20T19:09:59.788Z,6.67
2022-09-20T19:12:32.183Z,6.00
2022-09-20T19:15:04.755Z,5.57
2022-09-20T19:17:41.020Z,6.57
2022-09-20T19:20:16.628Z,5.47
2022-09-20T19:23:01.858Z,7.43
2022-09-20T19:25:43.322Z,6.33
2022-09-20T19:28:11.002Z,5.83
2022-09-20T19:30:39.556Z,4.20
2022-09-20T19:33:08.339Z,3.70
2022-09-20T19:35:38.987Z,4.20
2022-09-20T19:38:34.104Z,3.57
2022-09-20T19:41:00.403Z,3.40
2022-09-20T19:43:34.959Z,3.20
2022-09-20T19:46:26.924Z,2.83
2022-09-20T19:49:09.059Z,3.83
2022-09-20T19:51:37.164Z,3.90
2022-09-20T19:54:03.747Z,4.90
2022-09-20T19:56:33.466Z,6.27
2022-09-20T19:58:59.899Z,6.50
2022-09-20T20:01:26.930Z,7.13
2022-09-20T20:03:53.856Z,8.80
2022-09-20T20:06:26.264Z,8.33
2022-09-20T20:09:15.898Z,5.67
2022-09-20T20:11:51.245Z,4.60
2022-09-20T20:14:17.595Z,4.60
2022-09-20T20:17:16.835Z,4.17
2022-09-20T20:19:43.112Z,6.57
2022-09-20T20:22:28.360Z,5.00
2022-09-20T20:24:56.492Z,3.43
2022-09-20T20:27:22.931Z,3.80
2022-09-20T20:29:49.619Z,5.60
2022-09-20T20:32:16.163Z,6.07
2022-09-20T20:34:42.724Z,5.43
2022-09-20T20:37:09.159Z,4.93
2022-09-20T20:39:35.479Z,4.50
2022-09-20T20:42:02.734Z,3.30
2022-09-20T20:44:29.918Z,4.03
2022-09-20T20:46:56.307Z,6.20
2022-09-20T20:49:22.991Z,6.00
2022-09-20T20:51:49.376Z,5.67
2022-09-20T20:54:15.790Z,5.67
2022-09-20T20:56:42.314Z,5.57
2022-09-20T20:59:08.635Z,5.27
2022-09-20T21:01:36.618Z,5.47
2022-09-20T21:04:03.602Z,6.07
2022-09-20T21:06:34.596Z,6.10
2022-09-20T21:09:01.650Z,4.90
2022-09-20T21:11:29.258Z,5.33
2022-09-20T21:13:59.479Z,4.33
2022-09-20T21:16:30.174Z,3.87
2022-09-20T21:18:56.906Z,4.17
2022-09-20T21:21:33.652Z,4.60
2022-09-20T21:24:01.304Z,4.80
2022-09-20T21:26:31.899Z,5.40
2022-09-20T21:29:01.729Z,6.63
2022-09-20T21:31:29.823Z,7.03
2022-09-20T21:33:56.500Z,6.47
2022-09-20T21:36:24.095Z,6.00
2022-09-20T21:38:50.435Z,5.07
2022-09-20T21:41:18.396Z,4.90
2022-09-20T21:43:45.830Z,5.03
2022-09-20T21:46:14.084Z,4.70
2022-09-20T21:48:40.956Z,4.70
2022-09-20T21:51:09.040Z,4.83
2022-09-20T21:53:35.670Z,3.97
2022-09-20T21:56:03.459Z,3.83
2022-09-20T21:58:30.177Z,3.57
2022-09-20T22:01:16.000Z,3.60
2022-09-20T22:04:00.880Z,3.07
2022-09-20T22:06:28.801Z,3.17
2022-09-20T22:08:59.098Z,2.70
2022-09-20T22:11:26.195Z,2.70
2022-09-20T22:13:53.769Z,3.30
2022-09-20T22:16:27.854Z,2.60
2022-09-20T22:18:54.249Z,2.47
2022-09-20T22:21:25.583Z,2.73
2022-09-20T22:23:53.270Z,2.47
2022-09-20T22:26:21.320Z,3.50
2022-09-20T22:28:50.708Z,3.20
2022-09-20T22:31:18.784Z,2.60
2022-09-20T22:33:46.194Z,2.20
2022-09-20T22:36:14.139Z,2.50
2022-09-20T22:38:41.031Z,2.43
2022-09-20T22:41:07.703Z,2.10
2022-09-20T22:43:34.480Z,2.60
2022-09-20T22:46:05.032Z,2.70
2022-09-20T22:48:32.218Z,2.73
2022-09-20T22:50:59.626Z,2.87
2022-09-20T22:53:26.988Z,2.80
2022-09-20T22:55:53.294Z,2.50
2022-09-20T22:58:19.615Z,2.23
2022-09-20T23:00:45.920Z,2.17
2022-09-20T23:03:12.652Z,2.60
2022-09-20T23:05:39.543Z,2.07
2022-09-20T23:08:05.919Z,2.50
2022-09-20T23:10:33.160Z,3.07
2022-09-20T23:12:59.507Z,3.17
2022-09-20T23:15:25.802Z,3.87
2022-09-20T23:17:52.144Z,3.07
2022-09-20T23:20:18.480Z,2.67
2022-09-20T23:22:44.810Z,2.37
2022-09-20T23:25:11.142Z,2.43
2022-09-20T23:27:37.491Z,2.10
2022-09-20T23:30:04.563Z,2.00
2022-09-20T23:32:30.873Z,2.07
2022-09-20T23:34:57.238Z,2.20
2022-09-20T23:37:23.607Z,2.00
2022-09-20T23:39:49.908Z,2.70
2022-09-20T23:42:16.231Z,2.30
2022-09-20T23:44:42.572Z,2.03
2022-09-20T23:47:08.959Z,1.67
2022-09-20T23:49:36.670Z,1.97
2022-09-20T23:52:03.029Z,2.33
2022-09-20T23:54:29.352Z,1.93
2022-09-20T23:56:55.680Z,2.00
2022-09-20T23:59:21.992Z,2.00
